sensor_id;sensor_type;location;lat;lon;timestamp;temperature;humidity
17529;DHT22;8882;53.192;8.184;2022-11-20T08:05:10;1.40;99.90
17529;DHT22;8882;53.192;8.184;2022-11-20T08:07:40;1.40;99.90
17529;DHT22;8882;53.192;8.184;2022-11-20T08:10:07;1.40;99.90
17529;DHT22;8882;53.192;8.184;2022-11-20T08:12:33;1.30;99.90
17529;DHT22;8882;53.192;8.184;2022-11-20T08:15:17;1.30;99.90
17529;DHT22;8882;53.192;8.184;2022-11-20T08:17:43;1.30;99.90
17529;DHT22;8882;53.192;8.184;2022-11-20T08:20:08;1.30;99.90
17529;DHT22;8882;53.192;8.184;2022-11-20T08:22:34;1.30;99.90
17529;DHT22;8882;53.192;8.184;2022-11-20T08:25:00;1.30;99.90
17529;DHT22;8882;53.192;8.184;2022-11-20T08:27:25;1.40;99.90
17529;DHT22;8882;53.192;8.184;2022-11-20T08:29:51;1.40;99.90
17529;DHT22;8882;53.192;8.184;2022-11-20T08:32:16;1.40;99.90
17529;DHT22;8882;53.192;8.184;2022-11-20T08:34:42;1.50;99.90
17529;DHT22;8882;53.192;8.184;2022-11-20T08:37:07;1.50;99.90
17529;DHT22;8882;53.192;8.184;2022-11-20T08:39:33;1.50;99.90
17529;DHT22;8882;53.192;8.184;2022-11-20T08:41:58;1.50;99.90
17529;DHT22;8882;53.192;8.184;2022-11-20T08:44:24;1.60;99.90
17529;DHT22;8882;53.192;8.184;2022-11-20T08:46:49;1.60;99.90
17529;DHT22;8882;53.192;8.184;2022-11-20T08:49:15;1.60;99.90
17529;DHT22;8882;53.192;8.184;2022-11-20T08:51:41;1.60;99.90
17529;DHT22;8882;53.192;8.184;2022-11-20T08:54:06;1.60;99.90
17529;DHT22;8882;53.192;8.184;2022-11-20T08:56:32;1.60;99.90
17529;DHT22;8882;53.192;8.184;2022-11-20T08:58:58;1.60;99.90
17529;DHT22;8882;53.192;8.184;2022-11-20T09:01:27;1.60;99.90
17529;DHT22;8882;53.192;8.184;2022-11-20T09:03:54;1.60;99.90
17529;DHT22;8882;53.192;8.184;2022-11-20T09:06:20;1.60;99.90
17529;DHT22;8882;53.192;8.184;2022-11-20T09:08:45;1.60;99.90
17529;DHT22;8882;53.192;8.184;2022-11-20T09:11:11;1.70;99.90
17529;DHT22;8882;53.192;8.184;2022-11-20T09:13:36;1.70;99.90
17529;DHT22;8882;53.192;8.184;2022-11-20T09:16:07;1.70;99.90
17529;DHT22;8882;53.192;8.184;2022-11-20T09:18:34;1.70;99.90
17529;DHT22;8882;53.192;8.184;2022-11-20T09:21:05;1.70;99.90
17529;DHT22;8882;53.192;8.184;2022-11-20T09:23:34;1.80;99.90
17529;DHT22;8882;53.192;8.184;2022-11-20T09:26:09;1.80;99.90
17529;DHT22;8882;53.192;8.184;2022-11-20T09:28:34;1.90;99.90
17529;DHT22;8882;53.192;8.184;2022-11-20T09:31:00;1.90;99.90
17529;DHT22;8882;53.192;8.184;2022-11-20T09:33:26;1.80;99.90
17529;DHT22;8882;53.192;8.184;2022-11-20T09:35:51;1.80;99.90
17529;DHT22;8882;53.192;8.184;2022-11-20T09:38:17;1.80;99.90
17529;DHT22;8882;53.192;8.184;2022-11-20T09:40:55;1.90;99.90
17529;DHT22;8882;53.192;8.184;2022-11-20T09:54:19;2.00;99.90
17529;DHT22;8882;53.192;8.184;2022-11-20T09:56:20;2.00;99.90
17529;DHT22;8882;53.192;8.184;2022-11-20T09:58:50;2.00;99.90
17529;DHT22;8882;53.192;8.184;2022-11-20T10:01:26;2.10;99.90
17529;DHT22;8882;53.192;8.184;2022-11-20T10:04:06;2.20;99.90
17529;DHT22;8882;53.192;8.184;2022-11-20T10:09:37;2.10;99.90
17529;DHT22;8882;53.192;8.184;2022-11-20T10:15:27;2.10;99.90
17529;DHT22;8882;53.192;8.184;2022-11-20T10:18:09;2.00;99.90
17529;DHT22;8882;53.192;8.184;2022-11-20T10:29:29;2.20;99.90
17529;DHT22;8882;53.192;8.184;2022-11-20T10:32:02;2.10;99.90
17529;DHT22;8882;53.192;8.184;2022-11-20T10:34:31;2.10;99.90
17529;DHT22;8882;53.192;8.184;2022-11-20T10:37:03;2.10;99.90
17529;DHT22;8882;53.192;8.184;2022-11-20T10:39:36;2.10;99.90
17529;DHT22;8882;53.192;8.184;2022-11-20T10:42:09;2.20;99.90
17529;DHT22;8882;53.192;8.184;2022-11-20T10:44:36;2.10;99.90
17529;DHT22;8882;53.192;8.184;2022-11-20T10:47:22;2.10;99.90
17529;DHT22;8882;53.192;8.184;2022-11-20T10:49:54;2.10;99.90
17529;DHT22;8882;53.192;8.184;2022-11-20T10:55:46;2.00;99.90
17529;DHT22;8882;53.192;8.184;2022-11-20T11:00:45;2.10;99.90
17529;DHT22;8882;53.192;8.184;2022-11-20T11:03:27;2.20;99.90
17529;DHT22;8882;53.192;8.184;2022-11-20T11:06:01;2.20;99.90
17529;DHT22;8882;53.192;8.184;2022-11-20T11:08:37;2.30;99.90
17529;DHT22;8882;53.192;8.184;2022-11-20T11:11:22;2.50;99.90
17529;DHT22;8882;53.192;8.184;2022-11-20T11:13:49;2.60;99.90
17529;DHT22;8882;53.192;8.184;2022-11-20T11:16:23;2.70;99.90
17529;DHT22;8882;53.192;8.184;2022-11-20T11:18:49;2.70;99.90
17529;DHT22;8882;53.192;8.184;2022-11-20T11:21:22;2.70;99.90
17529;DHT22;8882;53.192;8.184;2022-11-20T11:23:58;2.70;99.90
17529;DHT22;8882;53.192;8.184;2022-11-20T11:26:24;2.80;99.90
17529;DHT22;8882;53.192;8.184;2022-11-20T11:28:59;2.80;99.90
17529;DHT22;8882;53.192;8.184;2022-11-20T11:31:26;2.80;99.90
17529;DHT22;8882;53.192;8.184;2022-11-20T11:33:51;2.80;99.90
17529;DHT22;8882;53.192;8.184;2022-11-20T11:36:22;2.80;99.90
17529;DHT22;8882;53.192;8.184;2022-11-20T11:38:52;2.80;99.90
17529;DHT22;8882;53.192;8.184;2022-11-20T11:41:22;2.90;99.90
17529;DHT22;8882;53.192;8.184;2022-11-20T11:43:57;2.90;99.90
17529;DHT22;8882;53.192;8.184;2022-11-20T11:46:53;2.80;99.90
17529;DHT22;8882;53.192;8.184;2022-11-20T11:49:20;2.80;99.90
17529;DHT22;8882;53.192;8.184;2022-11-20T12:00:14;2.80;99.90
17529;DHT22;8882;53.192;8.184;2022-11-20T12:05:18;2.80;99.90
17529;DHT22;8882;53.192;8.184;2022-11-20T12:16:11;4.60;99.90
17529;DHT22;8882;53.192;8.184;2022-11-20T12:18:39;4.10;99.90
17529;DHT22;8882;53.192;8.184;2022-11-20T12:23:52;3.60;99.90
17529;DHT22;8882;53.192;8.184;2022-11-20T12:34:56;3.10;99.90
17529;DHT22;8882;53.192;8.184;2022-11-20T12:37:48;3.00;99.90
17529;DHT22;8882;53.192;8.184;2022-11-20T12:40:33;3.00;99.90
17529;DHT22;8882;53.192;8.184;2022-11-20T12:43:24;3.10;99.90
17529;DHT22;8882;53.192;8.184;2022-11-20T12:46:22;3.10;99.90
17529;DHT22;8882;53.192;8.184;2022-11-20T12:52:00;3.10;99.90
17529;DHT22;8882;53.192;8.184;2022-11-20T12:54:46;3.00;99.90
17529;DHT22;8882;53.192;8.184;2022-11-20T12:57:33;2.90;99.90
17529;DHT22;8882;53.192;8.184;2022-11-20T13:00:17;2.90;99.90
17529;DHT22;8882;53.192;8.184;2022-11-20T13:05:46;3.10;99.90
17529;DHT22;8882;53.192;8.184;2022-11-20T13:08:25;3.10;99.90
17529;DHT22;8882;53.192;8.184;2022-11-20T13:11:02;3.10;99.90
17529;DHT22;8882;53.192;8.184;2022-11-20T13:16:34;3.30;99.90
17529;DHT22;8882;53.192;8.184;2022-11-20T13:19:03;3.40;99.90
17529;DHT22;8882;53.192;8.184;2022-11-20T13:21:37;3.50;99.90
17529;DHT22;8882;53.192;8.184;2022-11-20T13:26:44;3.40;99.90
17529;DHT22;8882;53.192;8.184;2022-11-20T13:29:17;3.50;99.90
17529;DHT22;8882;53.192;8.184;2022-11-20T13:31:45;3.40;99.90
17529;DHT22;8882;53.192;8.184;2022-11-20T13:34:24;3.40;99.90
17529;DHT22;8882;53.192;8.184;2022-11-20T13:36:51;3.60;99.90
17529;DHT22;8882;53.192;8.184;2022-11-20T13:39:25;3.50;99.90
17529;DHT22;8882;53.192;8.184;2022-11-20T13:42:00;3.40;99.90
17529;DHT22;8882;53.192;8.184;2022-11-20T13:44:35;3.50;99.90
17529;DHT22;8882;53.192;8.184;2022-11-20T13:47:03;3.60;99.90
17529;DHT22;8882;53.192;8.184;2022-11-20T13:49:38;3.50;99.90
17529;DHT22;8882;53.192;8.184;2022-11-20T13:52:29;3.60;99.90
17529;DHT22;8882;53.192;8.184;2022-11-20T13:58:05;3.50;99.90
17529;DHT22;8882;53.192;8.184;2022-11-20T14:00:33;3.50;99.90
17529;DHT22;8882;53.192;8.184;2022-11-20T14:03:06;3.40;99.90
17529;DHT22;8882;53.192;8.184;2022-11-20T14:05:45;3.40;99.90
17529;DHT22;8882;53.192;8.184;2022-11-20T14:08:21;3.40;99.90
17529;DHT22;8882;53.192;8.184;2022-11-20T14:10:49;3.40;99.90
17529;DHT22;8882;53.192;8.184;2022-11-20T14:13:18;3.40;99.90
17529;DHT22;8882;53.192;8.184;2022-11-20T14:15:44;3.30;99.90
17529;DHT22;8882;53.192;8.184;2022-11-20T14:18:20;3.30;99.90
17529;DHT22;8882;53.192;8.184;2022-11-20T14:20:47;3.30;99.90
17529;DHT22;8882;53.192;8.184;2022-11-20T14:23:22;3.20;99.90
17529;DHT22;8882;53.192;8.184;2022-11-20T14:25:48;3.20;99.90
17529;DHT22;8882;53.192;8.184;2022-11-20T14:28:27;3.20;99.90
17529;DHT22;8882;53.192;8.184;2022-11-20T14:30:54;3.20;99.90
17529;DHT22;8882;53.192;8.184;2022-11-20T14:33:20;3.20;99.90
17529;DHT22;8882;53.192;8.184;2022-11-20T14:35:52;3.10;99.90
17529;DHT22;8882;53.192;8.184;2022-11-20T14:38:23;3.00;99.90
17529;DHT22;8882;53.192;8.184;2022-11-20T14:40:49;2.90;99.90
17529;DHT22;8882;53.192;8.184;2022-11-20T14:43:27;2.80;99.90
17529;DHT22;8882;53.192;8.184;2022-11-20T14:45:58;2.80;99.90
17529;DHT22;8882;53.192;8.184;2022-11-20T14:48:32;2.90;99.90
17529;DHT22;8882;53.192;8.184;2022-11-20T14:50:59;2.80;99.90
17529;DHT22;8882;53.192;8.184;2022-11-20T14:53:25;2.80;99.90
17529;DHT22;8882;53.192;8.184;2022-11-20T14:55:59;2.80;99.90
17529;DHT22;8882;53.192;8.184;2022-11-20T14:58:27;2.70;99.90
17529;DHT22;8882;53.192;8.184;2022-11-20T15:00:58;2.70;99.90
17529;DHT22;8882;53.192;8.184;2022-11-20T15:03:37;2.60;99.90
17529;DHT22;8882;53.192;8.184;2022-11-20T15:06:05;2.60;99.90
17529;DHT22;8882;53.192;8.184;2022-11-20T15:08:30;2.50;99.90
17529;DHT22;8882;53.192;8.184;2022-11-20T15:10:56;2.40;99.90
17529;DHT22;8882;53.192;8.184;2022-11-20T15:13:34;2.40;99.90
17529;DHT22;8882;53.192;8.184;2022-11-20T15:16:03;2.40;99.90
17529;DHT22;8882;53.192;8.184;2022-11-20T15:18:38;2.30;99.90
17529;DHT22;8882;53.192;8.184;2022-11-20T15:21:13;2.30;99.90
17529;DHT22;8882;53.192;8.184;2022-11-20T15:23:38;2.30;99.90
17529;DHT22;8882;53.192;8.184;2022-11-20T15:26:05;3.30;99.90
17529;DHT22;8882;53.192;8.184;2022-11-20T15:28:34;3.30;99.90
17529;DHT22;8882;53.192;8.184;2022-11-20T15:31:00;3.30;99.90
17529;DHT22;8882;53.192;8.184;2022-11-20T15:33:27;3.10;99.90
17529;DHT22;8882;53.192;8.184;2022-11-20T15:35:53;2.90;99.90
17529;DHT22;8882;53.192;8.184;2022-11-20T15:38:18;2.70;99.90
17529;DHT22;8882;53.192;8.184;2022-11-20T15:40:44;2.50;99.90
17529;DHT22;8882;53.192;8.184;2022-11-20T15:43:09;2.40;99.90
17529;DHT22;8882;53.192;8.184;2022-11-20T15:45:43;2.40;99.90
17529;DHT22;8882;53.192;8.184;2022-11-20T15:48:13;2.30;99.90
17529;DHT22;8882;53.192;8.184;2022-11-20T15:50:54;2.20;99.90
17529;DHT22;8882;53.192;8.184;2022-11-20T15:53:22;2.20;99.90
17529;DHT22;8882;53.192;8.184;2022-11-20T15:55:47;2.10;99.90
17529;DHT22;8882;53.192;8.184;2022-11-20T15:58:13;2.00;99.90
17529;DHT22;8882;53.192;8.184;2022-11-20T16:00:39;1.90;99.90
17529;DHT22;8882;53.192;8.184;2022-11-20T16:03:05;1.90;99.90
17529;DHT22;8882;53.192;8.184;2022-11-20T16:05:30;1.80;99.90
17529;DHT22;8882;53.192;8.184;2022-11-20T16:07:56;1.70;99.90
17529;DHT22;8882;53.192;8.184;2022-11-20T16:10:22;1.60;99.90
17529;DHT22;8882;53.192;8.184;2022-11-20T16:12:48;1.60;99.90
17529;DHT22;8882;53.192;8.184;2022-11-20T16:15:33;1.50;99.90
17529;DHT22;8882;53.192;8.184;2022-11-20T16:18:11;1.50;99.90
17529;DHT22;8882;53.192;8.184;2022-11-20T16:20:37;1.40;99.90
17529;DHT22;8882;53.192;8.184;2022-11-20T16:23:03;1.50;99.90
17529;DHT22;8882;53.192;8.184;2022-11-20T16:25:29;1.30;99.90
17529;DHT22;8882;53.192;8.184;2022-11-20T16:27:54;1.30;99.90
17529;DHT22;8882;53.192;8.184;2022-11-20T16:30:20;1.20;99.90
17529;DHT22;8882;53.192;8.184;2022-11-20T16:32:45;1.20;99.90
17529;DHT22;8882;53.192;8.184;2022-11-20T16:35:11;1.30;99.90
17529;DHT22;8882;53.192;8.184;2022-11-20T16:37:36;1.40;99.90
17529;DHT22;8882;53.192;8.184;2022-11-20T16:40:02;1.50;99.90
17529;DHT22;8882;53.192;8.184;2022-11-20T16:42:28;1.60;99.90
17529;DHT22;8882;53.192;8.184;2022-11-20T16:44:58;1.50;99.90
17529;DHT22;8882;53.192;8.184;2022-11-20T16:47:23;1.60;99.90
17529;DHT22;8882;53.192;8.184;2022-11-20T16:49:49;1.70;99.90
17529;DHT22;8882;53.192;8.184;2022-11-20T16:52:14;1.70;99.90
17529;DHT22;8882;53.192;8.184;2022-11-20T16:54:40;1.70;99.90
17529;DHT22;8882;53.192;8.184;2022-11-20T16:57:05;1.60;99.90
17529;DHT22;8882;53.192;8.184;2022-11-20T16:59:31;1.60;99.90
17529;DHT22;8882;53.192;8.184;2022-11-20T17:01:56;1.50;99.90
17529;DHT22;8882;53.192;8.184;2022-11-20T17:04:22;1.50;99.90
17529;DHT22;8882;53.192;8.184;2022-11-20T17:06:47;1.50;99.90
17529;DHT22;8882;53.192;8.184;2022-11-20T17:09:13;1.50;99.90
17529;DHT22;8882;53.192;8.184;2022-11-20T17:11:39;1.60;99.90
17529;DHT22;8882;53.192;8.184;2022-11-20T17:14:05;1.50;99.90
17529;DHT22;8882;53.192;8.184;2022-11-20T17:16:35;1.50;99.90
17529;DHT22;8882;53.192;8.184;2022-11-20T17:19:01;1.60;99.90
17529;DHT22;8882;53.192;8.184;2022-11-20T17:21:27;1.50;99.90
17529;DHT22;8882;53.192;8.184;2022-11-20T17:23:54;1.60;99.90
17529;DHT22;8882;53.192;8.184;2022-11-20T17:26:22;1.60;99.90
17529;DHT22;8882;53.192;8.184;2022-11-20T17:29:01;1.50;99.90
17529;DHT22;8882;53.192;8.184;2022-11-20T17:31:28;1.40;99.90
17529;DHT22;8882;53.192;8.184;2022-11-20T17:33:54;1.40;99.90
17529;DHT22;8882;53.192;8.184;2022-11-20T17:36:20;1.40;99.90
17529;DHT22;8882;53.192;8.184;2022-11-20T17:38:46;1.40;99.90
17529;DHT22;8882;53.192;8.184;2022-11-20T17:41:14;1.40;99.90
17529;DHT22;8882;53.192;8.184;2022-11-20T17:43:40;1.40;99.90
17529;DHT22;8882;53.192;8.184;2022-11-20T17:46:08;1.40;99.90
17529;DHT22;8882;53.192;8.184;2022-11-20T17:48:34;1.40;99.90
17529;DHT22;8882;53.192;8.184;2022-11-20T17:51:02;1.30;99.90
17529;DHT22;8882;53.192;8.184;2022-11-20T17:53:31;1.40;99.90
17529;DHT22;8882;53.192;8.184;2022-11-20T17:55:57;1.30;99.90
17529;DHT22;8882;53.192;8.184;2022-11-20T17:58:41;1.30;99.90
17529;DHT22;8882;53.192;8.184;2022-11-20T18:01:08;1.30;99.90
17529;DHT22;8882;53.192;8.184;2022-11-20T18:03:34;1.20;99.90
17529;DHT22;8882;53.192;8.184;2022-11-20T18:06:17;1.10;99.90
17529;DHT22;8882;53.192;8.184;2022-11-20T18:08:43;1.10;99.90
17529;DHT22;8882;53.192;8.184;2022-11-20T18:11:17;1.00;99.90
17529;DHT22;8882;53.192;8.184;2022-11-20T18:13:44;1.00;99.90
17529;DHT22;8882;53.192;8.184;2022-11-20T18:16:30;1.00;99.90
17529;DHT22;8882;53.192;8.184;2022-11-20T18:18:57;1.00;99.90
17529;DHT22;8882;53.192;8.184;2022-11-20T18:21:25;1.00;99.90
17529;DHT22;8882;53.192;8.184;2022-11-20T18:23:50;1.00;99.90
17529;DHT22;8882;53.192;8.184;2022-11-20T18:26:17;1.00;99.90
17529;DHT22;8882;53.192;8.184;2022-11-20T18:28:43;1.00;99.90
17529;DHT22;8882;53.192;8.184;2022-11-20T18:31:08;1.00;99.90
17529;DHT22;8882;53.192;8.184;2022-11-20T18:33:34;1.00;99.90
17529;DHT22;8882;53.192;8.184;2022-11-20T18:36:13;1.00;99.90
17529;DHT22;8882;53.192;8.184;2022-11-20T18:38:40;0.90;99.90
17529;DHT22;8882;53.192;8.184;2022-11-20T18:41:07;1.00;99.90
17529;DHT22;8882;53.192;8.184;2022-11-20T18:43:53;0.90;99.90
17529;DHT22;8882;53.192;8.184;2022-11-20T18:46:37;0.80;99.90
17529;DHT22;8882;53.192;8.184;2022-11-20T18:49:02;0.80;99.90
17529;DHT22;8882;53.192;8.184;2022-11-20T18:51:28;0.70;99.90
17529;DHT22;8882;53.192;8.184;2022-11-20T18:53:53;0.70;99.90
17529;DHT22;8882;53.192;8.184;2022-11-20T18:56:19;0.70;99.90
17529;DHT22;8882;53.192;8.184;2022-11-20T18:58:44;0.70;99.90
17529;DHT22;8882;53.192;8.184;2022-11-20T19:01:10;0.70;99.90
17529;DHT22;8882;53.192;8.184;2022-11-20T19:03:35;0.70;99.90
17529;DHT22;8882;53.192;8.184;2022-11-20T19:06:01;0.80;99.90
17529;DHT22;8882;53.192;8.184;2022-11-20T19:08:27;0.80;99.90
17529;DHT22;8882;53.192;8.184;2022-11-20T19:10:52;0.80;99.90
17529;DHT22;8882;53.192;8.184;2022-11-20T19:13:18;0.80;99.90
17529;DHT22;8882;53.192;8.184;2022-11-20T19:15:43;0.80;99.90
17529;DHT22;8882;53.192;8.184;2022-11-20T19:18:09;0.80;99.90
17529;DHT22;8882;53.192;8.184;2022-11-20T19:20:34;0.80;99.90
17529;DHT22;8882;53.192;8.184;2022-11-20T19:23:00;0.80;99.90
17529;DHT22;8882;53.192;8.184;2022-11-20T19:25:25;0.70;99.90
17529;DHT22;8882;53.192;8.184;2022-11-20T19:27:51;0.70;99.90
17529;DHT22;8882;53.192;8.184;2022-11-20T19:30:16;0.70;99.90
17529;DHT22;8882;53.192;8.184;2022-11-20T19:32:42;0.70;99.90
17529;DHT22;8882;53.192;8.184;2022-11-20T19:35:07;0.70;99.90
17529;DHT22;8882;53.192;8.184;2022-11-20T19:37:33;0.70;99.90
17529;DHT22;8882;53.192;8.184;2022-11-20T19:39:58;0.60;99.90
17529;DHT22;8882;53.192;8.184;2022-11-20T19:42:28;0.70;99.90
17529;DHT22;8882;53.192;8.184;2022-11-20T19:44:54;0.60;99.90
17529;DHT22;8882;53.192;8.184;2022-11-20T19:47:19;0.60;99.90
17529;DHT22;8882;53.192;8.184;2022-11-20T19:49:45;0.60;99.90
17529;DHT22;8882;53.192;8.184;2022-11-20T19:52:10;0.60;99.90
17529;DHT22;8882;53.192;8.184;2022-11-20T19:54:36;0.60;99.90
17529;DHT22;8882;53.192;8.184;2022-11-20T19:57:01;0.60;99.90
17529;DHT22;8882;53.192;8.184;2022-11-20T19:59:27;0.50;99.90
17529;DHT22;8882;53.192;8.184;2022-11-20T20:01:52;0.50;99.90
17529;DHT22;8882;53.192;8.184;2022-11-20T20:04:18;0.50;99.90
17529;DHT22;8882;53.192;8.184;2022-11-20T20:06:44;0.50;99.90
17529;DHT22;8882;53.192;8.184;2022-11-20T20:09:11;0.40;99.90
17529;DHT22;8882;53.192;8.184;2022-11-20T20:11:37;0.40;99.90
17529;DHT22;8882;53.192;8.184;2022-11-20T20:14:08;0.40;99.90
17529;DHT22;8882;53.192;8.184;2022-11-20T20:16:34;0.40;99.90
17529;DHT22;8882;53.192;8.184;2022-11-20T20:19:02;0.40;99.90
17529;DHT22;8882;53.192;8.184;2022-11-20T20:21:28;0.30;99.90
17529;DHT22;8882;53.192;8.184;2022-11-20T20:23:55;0.30;99.90
17529;DHT22;8882;53.192;8.184;2022-11-20T20:26:25;0.30;99.90
17529;DHT22;8882;53.192;8.184;2022-11-20T20:28:51;0.30;99.90
17529;DHT22;8882;53.192;8.184;2022-11-20T20:31:19;0.30;99.90
17529;DHT22;8882;53.192;8.184;2022-11-20T20:33:45;0.30;99.90
17529;DHT22;8882;53.192;8.184;2022-11-20T20:36:12;0.20;99.90
17529;DHT22;8882;53.192;8.184;2022-11-20T20:38:40;0.20;99.90
17529;DHT22;8882;53.192;8.184;2022-11-20T20:41:06;0.10;99.90
17529;DHT22;8882;53.192;8.184;2022-11-20T20:43:32;0.10;99.90
17529;DHT22;8882;53.192;8.184;2022-11-20T20:46:18;0.10;99.90
17529;DHT22;8882;53.192;8.184;2022-11-20T20:48:44;0.10;99.90
17529;DHT22;8882;53.192;8.184;2022-11-20T20:51:09;0.10;99.90
17529;DHT22;8882;53.192;8.184;2022-11-20T20:53:35;0.00;99.90
17529;DHT22;8882;53.192;8.184;2022-11-20T20:56:01;0.10;99.90
17529;DHT22;8882;53.192;8.184;2022-11-20T20:58:28;0.00;99.90
17529;DHT22;8882;53.192;8.184;2022-11-20T21:01:00;0.00;99.90
17529;DHT22;8882;53.192;8.184;2022-11-20T21:03:26;0.00;99.90
17529;DHT22;8882;53.192;8.184;2022-11-20T21:05:55;0.10;99.90
17529;DHT22;8882;53.192;8.184;2022-11-20T21:08:22;0.10;99.90
17529;DHT22;8882;53.192;8.184;2022-11-20T21:10:53;0.10;99.90
17529;DHT22;8882;53.192;8.184;2022-11-20T21:13:20;0.00;99.90
17529;DHT22;8882;53.192;8.184;2022-11-20T21:15:48;0.00;99.90
17529;DHT22;8882;53.192;8.184;2022-11-20T21:18:19;0.10;99.90
17529;DHT22;8882;53.192;8.184;2022-11-20T21:20:45;0.10;99.90
17529;DHT22;8882;53.192;8.184;2022-11-20T21:23:30;0.10;99.90
17529;DHT22;8882;53.192;8.184;2022-11-20T21:25:56;0.10;99.90
17529;DHT22;8882;53.192;8.184;2022-11-20T21:28:24;0.00;99.90
17529;DHT22;8882;53.192;8.184;2022-11-20T21:30:49;0.00;99.90
17529;DHT22;8882;53.192;8.184;2022-11-20T21:33:15;0.10;99.90
17529;DHT22;8882;53.192;8.184;2022-11-20T21:35:40;0.10;99.90
17529;DHT22;8882;53.192;8.184;2022-11-20T21:38:06;0.10;99.90
17529;DHT22;8882;53.192;8.184;2022-11-20T21:40:31;0.10;99.90
17529;DHT22;8882;53.192;8.184;2022-11-20T21:42:57;0.10;99.90
17529;DHT22;8882;53.192;8.184;2022-11-20T21:45:22;0.20;99.90
17529;DHT22;8882;53.192;8.184;2022-11-20T21:47:48;0.20;99.90
17529;DHT22;8882;53.192;8.184;2022-11-20T21:50:15;0.20;99.90
17529;DHT22;8882;53.192;8.184;2022-11-20T21:52:40;0.20;99.90
17529;DHT22;8882;53.192;8.184;2022-11-20T21:55:06;0.20;99.90
17529;DHT22;8882;53.192;8.184;2022-11-20T21:57:33;0.20;99.90
17529;DHT22;8882;53.192;8.184;2022-11-20T21:59:59;0.20;99.90
